Asbury Park, New Jersey
Current Conditions -  °F | °C
As of 8:35 PM on Wednesday 22 Oct 2014 (Local Time) from KBLM Reporting Station
Overcast Overcast  
Wind Chill: 11°   Ceiling: 1500
Heat Index: 11°   Visibility: 10mi
Dew Point:   Wind: 18mph
Humidity: 82%   Direction: 340°NNW
Pressure: 29.75"   Gusts: 25mph
Location:  40.22°N, 74.01°W
Report Text: KBLM 230035Z AUTO 34016G22KT 10SM FEW010 BKN015 OVC027 11/08 A2975 RMK AO1 P0004
Loading
Personal Weather Stations






























Interactive Weather Map
Tropical Storm Tracking
New forecast layout! Learn more

10-Day Weather Forecast

Advertisements
Track Severe Weather on mobile